Springvale, Ohio
Current Conditions -  °F | °C
As of 5:53 PM on Saturday 25 Oct 2014 (Local Time) from KLUK Reporting Station
Clear Clear  
Wind Chill: 71°   Ceiling: Unl
Heat Index: 71°   Visibility: 10mi
Dew Point: 54°   Wind: 9mph
Humidity: 55%   Direction: 260°W
Pressure: 29.92"   Gusts: NA
Location:  39.23°N, 84.2394°W
Report Text: KLUK 252153Z 26008KT 10SM CLR 22/12 A2992 RMK AO2 SLP130 T02170122
Loading
Personal Weather Stations






























Interactive Weather Map
Tropical Storm Tracking
New forecast layout! Learn more

10-Day Weather Forecast

Advertisements
Track Severe Weather on mobile